sensor_id;sensor_type;location;lat;lon;timestamp;temperature;humidity
9167;DHT22;4618;48.818;9.088;2022-11-15T00:02:20;9.60;99.90
9167;DHT22;4618;48.818;9.088;2022-11-15T00:04:46;9.60;1.00
9167;DHT22;4618;48.818;9.088;2022-11-15T00:07:11;9.70;1.00
9167;DHT22;4618;48.818;9.088;2022-11-15T00:09:37;9.70;1.00
9167;DHT22;4618;48.818;9.088;2022-11-15T00:12:03;9.70;1.00
9167;DHT22;4618;48.818;9.088;2022-11-15T00:14:28;9.70;1.00
9167;DHT22;4618;48.818;9.088;2022-11-15T00:16:54;9.60;1.00
9167;DHT22;4618;48.818;9.088;2022-11-15T00:19:19;9.40;55.50
9167;DHT22;4618;48.818;9.088;2022-11-15T00:21:45;9.40;99.90
9167;DHT22;4618;48.818;9.088;2022-11-15T00:24:10;9.30;99.90
9167;DHT22;4618;48.818;9.088;2022-11-15T00:26:36;9.40;99.90
9167;DHT22;4618;48.818;9.088;2022-11-15T00:29:02;9.40;99.90
9167;DHT22;4618;48.818;9.088;2022-11-15T00:31:27;9.30;99.90
9167;DHT22;4618;48.818;9.088;2022-11-15T00:33:53;9.30;99.90
9167;DHT22;4618;48.818;9.088;2022-11-15T00:36:18;9.30;99.90
9167;DHT22;4618;48.818;9.088;2022-11-15T00:38:44;9.30;99.90
9167;DHT22;4618;48.818;9.088;2022-11-15T00:41:09;9.20;99.90
9167;DHT22;4618;48.818;9.088;2022-11-15T00:43:35;9.20;99.90
9167;DHT22;4618;48.818;9.088;2022-11-15T00:46:01;9.10;99.90
9167;DHT22;4618;48.818;9.088;2022-11-15T00:48:27;9.00;1.00
9167;DHT22;4618;48.818;9.088;2022-11-15T00:50:53;9.00;1.00
9167;DHT22;4618;48.818;9.088;2022-11-15T00:53:19;9.00;1.00
9167;DHT22;4618;48.818;9.088;2022-11-15T00:55:46;9.00;1.00
9167;DHT22;4618;48.818;9.088;2022-11-15T00:58:11;8.90;1.00
9167;DHT22;4618;48.818;9.088;2022-11-15T01:00:37;8.90;1.00
9167;DHT22;4618;48.818;9.088;2022-11-15T01:03:03;8.90;1.00
9167;DHT22;4618;48.818;9.088;2022-11-15T01:05:28;8.80;1.00
9167;DHT22;4618;48.818;9.088;2022-11-15T01:07:55;8.80;1.00
9167;DHT22;4618;48.818;9.088;2022-11-15T01:10:21;8.70;1.00
9167;DHT22;4618;48.818;9.088;2022-11-15T01:12:47;8.80;1.00
9167;DHT22;4618;48.818;9.088;2022-11-15T01:15:13;8.90;1.00
9167;DHT22;4618;48.818;9.088;2022-11-15T01:17:39;8.80;1.00
9167;DHT22;4618;48.818;9.088;2022-11-15T01:20:05;8.80;1.00
9167;DHT22;4618;48.818;9.088;2022-11-15T01:22:31;8.70;1.00
9167;DHT22;4618;48.818;9.088;2022-11-15T01:24:56;8.50;99.90
9167;DHT22;4618;48.818;9.088;2022-11-15T01:27:22;8.50;99.90
9167;DHT22;4618;48.818;9.088;2022-11-15T01:29:48;8.50;99.90
9167;DHT22;4618;48.818;9.088;2022-11-15T01:32:13;8.40;99.90
9167;DHT22;4618;48.818;9.088;2022-11-15T01:34:39;8.40;99.90
9167;DHT22;4618;48.818;9.088;2022-11-15T01:37:04;8.30;99.90
9167;DHT22;4618;48.818;9.088;2022-11-15T01:39:30;8.20;99.90
9167;DHT22;4618;48.818;9.088;2022-11-15T01:41:56;8.20;99.90
9167;DHT22;4618;48.818;9.088;2022-11-15T01:47:05;8.10;1.00
9167;DHT22;4618;48.818;9.088;2022-11-15T01:49:35;8.00;1.00
9167;DHT22;4618;48.818;9.088;2022-11-15T01:52:04;7.90;1.00
9167;DHT22;4618;48.818;9.088;2022-11-15T01:54:30;7.90;1.00
9167;DHT22;4618;48.818;9.088;2022-11-15T01:57:01;7.80;1.00
9167;DHT22;4618;48.818;9.088;2022-11-15T01:59:28;7.80;1.00
9167;DHT22;4618;48.818;9.088;2022-11-15T02:01:54;7.80;99.90
9167;DHT22;4618;48.818;9.088;2022-11-15T02:04:26;7.80;28.90
9167;DHT22;4618;48.818;9.088;2022-11-15T02:06:53;8.00;1.00
9167;DHT22;4618;48.818;9.088;2022-11-15T02:09:19;8.10;1.00
9167;DHT22;4618;48.818;9.088;2022-11-15T02:11:45;8.10;1.00
9167;DHT22;4618;48.818;9.088;2022-11-15T02:14:14;8.10;1.00
9167;DHT22;4618;48.818;9.088;2022-11-15T02:17:21;8.00;1.00
9167;DHT22;4618;48.818;9.088;2022-11-15T02:29:05;7.90;1.00
9167;DHT22;4618;48.818;9.088;2022-11-15T02:35:11;7.90;1.00
9167;DHT22;4618;48.818;9.088;2022-11-15T02:37:47;8.10;99.90
9167;DHT22;4618;48.818;9.088;2022-11-15T02:41:04;8.10;96.30
9167;DHT22;4618;48.818;9.088;2022-11-15T02:43:54;8.00;99.90
9167;DHT22;4618;48.818;9.088;2022-11-15T02:49:19;8.00;99.90
9167;DHT22;4618;48.818;9.088;2022-11-15T02:51:47;8.00;99.90
9167;DHT22;4618;48.818;9.088;2022-11-15T02:54:21;8.10;99.90
9167;DHT22;4618;48.818;9.088;2022-11-15T02:56:48;8.10;99.90
9167;DHT22;4618;48.818;9.088;2022-11-15T03:04:54;7.90;92.30
9167;DHT22;4618;48.818;9.088;2022-11-15T03:10:15;7.60;99.90
9167;DHT22;4618;48.818;9.088;2022-11-15T03:12:54;7.50;1.00
9167;DHT22;4618;48.818;9.088;2022-11-15T03:15:21;7.50;1.00
9167;DHT22;4618;48.818;9.088;2022-11-15T03:18:00;7.50;1.00
9167;DHT22;4618;48.818;9.088;2022-11-15T03:20:28;7.50;1.00
9167;DHT22;4618;48.818;9.088;2022-11-15T03:22:59;7.50;1.00
9167;DHT22;4618;48.818;9.088;2022-11-15T03:25:28;7.50;29.50
9167;DHT22;4618;48.818;9.088;2022-11-15T03:27:57;7.50;56.20
9167;DHT22;4618;48.818;9.088;2022-11-15T03:30:24;7.50;99.90
9167;DHT22;4618;48.818;9.088;2022-11-15T03:32:56;7.60;99.90
9167;DHT22;4618;48.818;9.088;2022-11-15T03:35:27;7.60;1.00
9167;DHT22;4618;48.818;9.088;2022-11-15T03:37:59;7.60;39.30
9167;DHT22;4618;48.818;9.088;2022-11-15T03:40:40;7.60;1.00
9167;DHT22;4618;48.818;9.088;2022-11-15T03:48:53;7.50;99.90
9167;DHT22;4618;48.818;9.088;2022-11-15T03:51:20;7.50;99.90
9167;DHT22;4618;48.818;9.088;2022-11-15T03:53:46;7.60;8.40
9167;DHT22;4618;48.818;9.088;2022-11-15T03:56:12;7.60;1.00
9167;DHT22;4618;48.818;9.088;2022-11-15T03:58:37;7.70;47.40
9167;DHT22;4618;48.818;9.088;2022-11-15T04:01:03;7.70;1.00
9167;DHT22;4618;48.818;9.088;2022-11-15T04:03:29;7.80;1.00
9167;DHT22;4618;48.818;9.088;2022-11-15T04:05:54;7.80;1.00
9167;DHT22;4618;48.818;9.088;2022-11-15T04:08:20;7.80;1.00
9167;DHT22;4618;48.818;9.088;2022-11-15T04:10:48;7.80;1.00
9167;DHT22;4618;48.818;9.088;2022-11-15T04:13:14;7.80;1.00
9167;DHT22;4618;48.818;9.088;2022-11-15T04:15:40;7.80;1.00
9167;DHT22;4618;48.818;9.088;2022-11-15T04:18:05;7.90;1.00
9167;DHT22;4618;48.818;9.088;2022-11-15T04:20:32;7.90;1.00
9167;DHT22;4618;48.818;9.088;2022-11-15T04:23:21;8.00;99.90
9167;DHT22;4618;48.818;9.088;2022-11-15T04:26:08;8.10;99.90
9167;DHT22;4618;48.818;9.088;2022-11-15T04:28:35;8.20;99.90
9167;DHT22;4618;48.818;9.088;2022-11-15T04:31:21;8.20;99.90
9167;DHT22;4618;48.818;9.088;2022-11-15T04:33:46;8.40;1.00
9167;DHT22;4618;48.818;9.088;2022-11-15T04:36:12;8.40;1.00
9167;DHT22;4618;48.818;9.088;2022-11-15T04:38:57;8.50;1.00
9167;DHT22;4618;48.818;9.088;2022-11-15T04:41:22;8.60;1.00
9167;DHT22;4618;48.818;9.088;2022-11-15T04:43:48;8.60;99.90
9167;DHT22;4618;48.818;9.088;2022-11-15T04:46:13;8.70;99.90
9167;DHT22;4618;48.818;9.088;2022-11-15T04:48:39;8.60;99.90
9167;DHT22;4618;48.818;9.088;2022-11-15T04:51:05;8.50;99.90
9167;DHT22;4618;48.818;9.088;2022-11-15T04:53:30;8.40;1.00
9167;DHT22;4618;48.818;9.088;2022-11-15T04:55:56;8.50;99.90
9167;DHT22;4618;48.818;9.088;2022-11-15T04:58:22;8.90;99.90
9167;DHT22;4618;48.818;9.088;2022-11-15T05:00:47;9.00;27.30
9167;DHT22;4618;48.818;9.088;2022-11-15T05:03:13;8.80;99.90
9167;DHT22;4618;48.818;9.088;2022-11-15T05:05:58;8.60;1.00
9167;DHT22;4618;48.818;9.088;2022-11-15T05:08:24;8.40;99.90
9167;DHT22;4618;48.818;9.088;2022-11-15T05:10:50;8.20;1.00
9167;DHT22;4618;48.818;9.088;2022-11-15T05:13:16;8.00;5.50
9167;DHT22;4618;48.818;9.088;2022-11-15T05:15:41;8.00;99.90
9167;DHT22;4618;48.818;9.088;2022-11-15T05:18:07;8.20;1.00
9167;DHT22;4618;48.818;9.088;2022-11-15T05:20:32;8.40;99.90
9167;DHT22;4618;48.818;9.088;2022-11-15T05:22:58;8.30;1.00
9167;DHT22;4618;48.818;9.088;2022-11-15T05:25:24;8.30;1.00
9167;DHT22;4618;48.818;9.088;2022-11-15T05:27:50;8.30;99.90
9167;DHT22;4618;48.818;9.088;2022-11-15T05:30:15;8.50;99.90
9167;DHT22;4618;48.818;9.088;2022-11-15T05:32:42;8.60;32.90
9167;DHT22;4618;48.818;9.088;2022-11-15T05:35:12;8.70;1.00
9167;DHT22;4618;48.818;9.088;2022-11-15T05:37:40;8.80;1.00
9167;DHT22;4618;48.818;9.088;2022-11-15T05:40:06;9.00;1.00
9167;DHT22;4618;48.818;9.088;2022-11-15T05:42:32;9.10;99.90
9167;DHT22;4618;48.818;9.088;2022-11-15T05:44:58;9.30;1.00
9167;DHT22;4618;48.818;9.088;2022-11-15T05:47:26;9.40;1.00
9167;DHT22;4618;48.818;9.088;2022-11-15T05:49:53;9.50;1.00
9167;DHT22;4618;48.818;9.088;2022-11-15T05:52:24;9.60;99.90
9167;DHT22;4618;48.818;9.088;2022-11-15T05:54:51;9.50;1.00
9167;DHT22;4618;48.818;9.088;2022-11-15T05:57:17;9.50;1.00
9167;DHT22;4618;48.818;9.088;2022-11-15T05:59:43;9.40;1.00
9167;DHT22;4618;48.818;9.088;2022-11-15T06:02:10;9.30;1.00
9167;DHT22;4618;48.818;9.088;2022-11-15T06:04:36;9.20;31.40
9167;DHT22;4618;48.818;9.088;2022-11-15T06:07:02;9.10;99.90
9167;DHT22;4618;48.818;9.088;2022-11-15T06:09:27;9.00;1.00
9167;DHT22;4618;48.818;9.088;2022-11-15T06:11:53;8.80;21.70
9167;DHT22;4618;48.818;9.088;2022-11-15T06:14:18;8.70;77.50
9167;DHT22;4618;48.818;9.088;2022-11-15T06:16:44;8.80;1.00
9167;DHT22;4618;48.818;9.088;2022-11-15T06:19:09;8.80;1.00
9167;DHT22;4618;48.818;9.088;2022-11-15T06:21:35;8.80;1.00
9167;DHT22;4618;48.818;9.088;2022-11-15T06:24:01;8.80;1.00
9167;DHT22;4618;48.818;9.088;2022-11-15T06:26:26;8.80;1.00
9167;DHT22;4618;48.818;9.088;2022-11-15T06:28:52;9.00;1.00
9167;DHT22;4618;48.818;9.088;2022-11-15T06:31:18;9.00;99.90
9167;DHT22;4618;48.818;9.088;2022-11-15T06:33:43;9.00;1.00
9167;DHT22;4618;48.818;9.088;2022-11-15T06:36:11;9.10;99.90
9167;DHT22;4618;48.818;9.088;2022-11-15T06:38:39;9.10;99.90
9167;DHT22;4618;48.818;9.088;2022-11-15T06:41:07;9.20;99.90
9167;DHT22;4618;48.818;9.088;2022-11-15T06:43:34;9.20;99.90
9167;DHT22;4618;48.818;9.088;2022-11-15T06:46:00;9.30;99.90
9167;DHT22;4618;48.818;9.088;2022-11-15T06:48:27;9.30;1.00
9167;DHT22;4618;48.818;9.088;2022-11-15T06:51:02;9.40;93.40
9167;DHT22;4618;48.818;9.088;2022-11-15T06:53:29;9.40;29.40
9167;DHT22;4618;48.818;9.088;2022-11-15T06:55:58;9.50;1.00
9167;DHT22;4618;48.818;9.088;2022-11-15T06:58:24;9.50;37.80
9167;DHT22;4618;48.818;9.088;2022-11-15T07:00:50;9.40;99.90
9167;DHT22;4618;48.818;9.088;2022-11-15T07:03:15;9.30;99.90
9167;DHT22;4618;48.818;9.088;2022-11-15T07:05:41;9.30;1.00
9167;DHT22;4618;48.818;9.088;2022-11-15T07:08:06;9.40;1.00
9167;DHT22;4618;48.818;9.088;2022-11-15T07:10:32;9.40;1.00
9167;DHT22;4618;48.818;9.088;2022-11-15T07:12:57;9.40;1.00
9167;DHT22;4618;48.818;9.088;2022-11-15T07:15:25;9.50;1.00
9167;DHT22;4618;48.818;9.088;2022-11-15T07:17:51;9.60;1.00
9167;DHT22;4618;48.818;9.088;2022-11-15T07:20:17;9.70;1.00
9167;DHT22;4618;48.818;9.088;2022-11-15T07:22:43;9.70;99.90
9167;DHT22;4618;48.818;9.088;2022-11-15T07:25:12;9.80;1.00
9167;DHT22;4618;48.818;9.088;2022-11-15T07:27:38;10.00;1.00
9167;DHT22;4618;48.818;9.088;2022-11-15T07:30:04;10.20;90.50
9167;DHT22;4618;48.818;9.088;2022-11-15T07:32:30;10.40;1.00
9167;DHT22;4618;48.818;9.088;2022-11-15T07:34:55;10.60;99.90
9167;DHT22;4618;48.818;9.088;2022-11-15T07:37:21;10.80;4.30
9167;DHT22;4618;48.818;9.088;2022-11-15T07:39:47;11.10;1.00
9167;DHT22;4618;48.818;9.088;2022-11-15T07:42:12;11.20;1.00
9167;DHT22;4618;48.818;9.088;2022-11-15T07:44:56;11.20;1.00
9167;DHT22;4618;48.818;9.088;2022-11-15T07:47:22;11.40;1.00
9167;DHT22;4618;48.818;9.088;2022-11-15T07:49:47;11.30;1.00
9167;DHT22;4618;48.818;9.088;2022-11-15T07:52:13;11.50;1.00
9167;DHT22;4618;48.818;9.088;2022-11-15T07:54:39;11.50;1.00
9167;DHT22;4618;48.818;9.088;2022-11-15T07:57:05;11.40;1.00
9167;DHT22;4618;48.818;9.088;2022-11-15T07:59:32;11.40;99.90
9167;DHT22;4618;48.818;9.088;2022-11-15T08:01:58;11.60;99.90
9167;DHT22;4618;48.818;9.088;2022-11-15T08:04:23;11.80;99.90
9167;DHT22;4618;48.818;9.088;2022-11-15T08:06:49;11.90;43.70
9167;DHT22;4618;48.818;9.088;2022-11-15T08:09:14;12.10;52.20
9167;DHT22;4618;48.818;9.088;2022-11-15T08:11:40;12.30;1.00
9167;DHT22;4618;48.818;9.088;2022-11-15T08:14:06;12.40;1.00
9167;DHT22;4618;48.818;9.088;2022-11-15T08:16:31;12.60;1.00
9167;DHT22;4618;48.818;9.088;2022-11-15T08:18:57;12.70;1.00
9167;DHT22;4618;48.818;9.088;2022-11-15T08:21:23;12.90;1.00
9167;DHT22;4618;48.818;9.088;2022-11-15T08:23:48;13.10;1.00
9167;DHT22;4618;48.818;9.088;2022-11-15T08:26:14;13.30;99.90
9167;DHT22;4618;48.818;9.088;2022-11-15T08:28:40;13.70;99.90
9167;DHT22;4618;48.818;9.088;2022-11-15T08:31:06;14.10;99.90
9167;DHT22;4618;48.818;9.088;2022-11-15T08:33:32;14.00;99.90
9167;DHT22;4618;48.818;9.088;2022-11-15T08:35:59;14.00;99.90
9167;DHT22;4618;48.818;9.088;2022-11-15T08:38:25;14.20;99.90
9167;DHT22;4618;48.818;9.088;2022-11-15T08:40:53;14.60;36.90
9167;DHT22;4618;48.818;9.088;2022-11-15T08:43:24;14.90;1.00
9167;DHT22;4618;48.818;9.088;2022-11-15T08:45:49;15.00;99.90
9167;DHT22;4618;48.818;9.088;2022-11-15T08:48:15;15.40;99.90
9167;DHT22;4618;48.818;9.088;2022-11-15T08:50:40;15.70;1.00
9167;DHT22;4618;48.818;9.088;2022-11-15T08:53:09;16.10;1.00
9167;DHT22;4618;48.818;9.088;2022-11-15T08:55:38;16.80;99.90
9167;DHT22;4618;48.818;9.088;2022-11-15T08:58:04;17.70;6.60
9167;DHT22;4618;48.818;9.088;2022-11-15T09:00:30;18.80;1.00
9167;DHT22;4618;48.818;9.088;2022-11-15T09:02:55;19.90;1.00
9167;DHT22;4618;48.818;9.088;2022-11-15T09:05:21;20.20;1.00
9167;DHT22;4618;48.818;9.088;2022-11-15T09:07:46;19.70;1.00
9167;DHT22;4618;48.818;9.088;2022-11-15T09:10:12;19.40;1.00
9167;DHT22;4618;48.818;9.088;2022-11-15T09:12:38;19.40;1.00
9167;DHT22;4618;48.818;9.088;2022-11-15T09:15:05;20.20;1.00
9167;DHT22;4618;48.818;9.088;2022-11-15T09:17:31;20.50;1.00
9167;DHT22;4618;48.818;9.088;2022-11-15T09:19:56;20.00;1.00
9167;DHT22;4618;48.818;9.088;2022-11-15T09:22:22;19.00;1.00
9167;DHT22;4618;48.818;9.088;2022-11-15T09:24:48;18.40;1.00
9167;DHT22;4618;48.818;9.088;2022-11-15T09:27:13;17.50;1.00
9167;DHT22;4618;48.818;9.088;2022-11-15T09:29:39;17.30;1.00
9167;DHT22;4618;48.818;9.088;2022-11-15T09:32:05;17.60;1.00
9167;DHT22;4618;48.818;9.088;2022-11-15T09:34:30;18.80;1.00
9167;DHT22;4618;48.818;9.088;2022-11-15T09:36:56;19.00;1.00
9167;DHT22;4618;48.818;9.088;2022-11-15T09:39:22;18.90;1.00
9167;DHT22;4618;48.818;9.088;2022-11-15T09:50:36;20.20;1.00
9167;DHT22;4618;48.818;9.088;2022-11-15T09:53:04;19.40;1.00
9167;DHT22;4618;48.818;9.088;2022-11-15T09:55:38;18.90;1.00
9167;DHT22;4618;48.818;9.088;2022-11-15T09:58:30;18.70;1.00
9167;DHT22;4618;48.818;9.088;2022-11-15T10:01:00;18.70;1.00
9167;DHT22;4618;48.818;9.088;2022-11-15T10:03:36;18.60;1.00
9167;DHT22;4618;48.818;9.088;2022-11-15T10:06:04;18.40;59.10
9167;DHT22;4618;48.818;9.088;2022-11-15T10:11:23;18.10;98.50
9167;DHT22;4618;48.818;9.088;2022-11-15T10:13:51;17.70;99.90
9167;DHT22;4618;48.818;9.088;2022-11-15T10:24:45;17.80;99.90
9167;DHT22;4618;48.818;9.088;2022-11-15T10:27:15;17.70;99.90
9167;DHT22;4618;48.818;9.088;2022-11-15T10:29:49;17.60;99.90
9167;DHT22;4618;48.818;9.088;2022-11-15T10:32:17;17.40;99.90
9167;DHT22;4618;48.818;9.088;2022-11-15T10:34:44;17.40;1.00
9167;DHT22;4618;48.818;9.088;2022-11-15T10:37:09;17.50;99.90
9167;DHT22;4618;48.818;9.088;2022-11-15T10:39:35;17.30;99.90
9167;DHT22;4618;48.818;9.088;2022-11-15T10:42:17;17.20;99.90
9167;DHT22;4618;48.818;9.088;2022-11-15T10:44:44;16.90;1.00
9167;DHT22;4618;48.818;9.088;2022-11-15T10:47:30;16.60;1.00
9167;DHT22;4618;48.818;9.088;2022-11-15T10:50:05;16.70;1.00
9167;DHT22;4618;48.818;9.088;2022-11-15T10:52:34;16.70;1.00
9167;DHT22;4618;48.818;9.088;2022-11-15T10:57:38;16.60;1.00
9167;DHT22;4618;48.818;9.088;2022-11-15T11:00:27;16.50;1.00
9167;DHT22;4618;48.818;9.088;2022-11-15T11:03:00;16.50;1.00
9167;DHT22;4618;48.818;9.088;2022-11-15T11:05:33;16.40;1.00
9167;DHT22;4618;48.818;9.088;2022-11-15T11:08:05;16.30;1.00
9167;DHT22;4618;48.818;9.088;2022-11-15T11:10:31;16.10;1.00
9167;DHT22;4618;48.818;9.088;2022-11-15T11:13:21;16.00;6.30
9167;DHT22;4618;48.818;9.088;2022-11-15T11:27:07;16.20;99.90
9167;DHT22;4618;48.818;9.088;2022-11-15T11:32:49;16.30;1.00
9167;DHT22;4618;48.818;9.088;2022-11-15T11:38:18;16.60;99.90
9167;DHT22;4618;48.818;9.088;2022-11-15T11:48:41;17.20;1.00
9167;DHT22;4618;48.818;9.088;2022-11-15T11:51:24;17.30;1.00
9167;DHT22;4618;48.818;9.088;2022-11-15T11:53:56;17.50;99.90
9167;DHT22;4618;48.818;9.088;2022-11-15T11:56:31;17.50;99.90
9167;DHT22;4618;48.818;9.088;2022-11-15T11:59:07;17.70;99.90
9167;DHT22;4618;48.818;9.088;2022-11-15T12:01:42;18.10;99.90
9167;DHT22;4618;48.818;9.088;2022-11-15T12:04:19;18.40;99.90
9167;DHT22;4618;48.818;9.088;2022-11-15T12:09:39;19.10;2.30
9167;DHT22;4618;48.818;9.088;2022-11-15T12:14:52;18.80;1.00
9167;DHT22;4618;48.818;9.088;2022-11-15T12:17:23;18.50;1.00
9167;DHT22;4618;48.818;9.088;2022-11-15T12:19:49;18.40;40.10
9167;DHT22;4618;48.818;9.088;2022-11-15T12:22:24;18.10;46.60
9167;DHT22;4618;48.818;9.088;2022-11-15T12:24:56;17.90;99.90
9167;DHT22;4618;48.818;9.088;2022-11-15T12:27:40;17.80;99.90
9167;DHT22;4618;48.818;9.088;2022-11-15T12:30:17;17.40;99.90
9167;DHT22;4618;48.818;9.088;2022-11-15T12:33:28;17.10;1.00
9167;DHT22;4618;48.818;9.088;2022-11-15T12:36:00;17.00;99.90
9167;DHT22;4618;48.818;9.088;2022-11-15T12:47:22;16.00;1.00
9167;DHT22;4618;48.818;9.088;2022-11-15T12:49:48;15.90;1.00
9167;DHT22;4618;48.818;9.088;2022-11-15T12:52:15;15.80;1.00
9167;DHT22;4618;48.818;9.088;2022-11-15T13:02:43;15.70;1.00
9167;DHT22;4618;48.818;9.088;2022-11-15T13:17:45;15.70;99.90
9167;DHT22;4618;48.818;9.088;2022-11-15T13:28:11;15.90;1.00
9167;DHT22;4618;48.818;9.088;2022-11-15T13:35:57;15.70;1.00
9167;DHT22;4618;48.818;9.088;2022-11-15T13:38:37;15.60;54.90
9167;DHT22;4618;48.818;9.088;2022-11-15T13:41:22;15.40;99.90
9167;DHT22;4618;48.818;9.088;2022-11-15T13:43:49;15.50;1.00
9167;DHT22;4618;48.818;9.088;2022-11-15T13:46:25;15.20;1.00
9167;DHT22;4618;48.818;9.088;2022-11-15T13:48:54;15.20;1.00
9167;DHT22;4618;48.818;9.088;2022-11-15T13:54:24;15.10;1.00
9167;DHT22;4618;48.818;9.088;2022-11-15T13:56:59;15.00;1.00
9167;DHT22;4618;48.818;9.088;2022-11-15T14:04:39;14.70;99.90
9167;DHT22;4618;48.818;9.088;2022-11-15T14:07:19;14.60;99.90
9167;DHT22;4618;48.818;9.088;2022-11-15T14:09:46;14.50;1.00
9167;DHT22;4618;48.818;9.088;2022-11-15T14:14:49;14.20;1.00
9167;DHT22;4618;48.818;9.088;2022-11-15T14:17:34;14.20;1.00
9167;DHT22;4618;48.818;9.088;2022-11-15T14:20:01;14.20;1.00
9167;DHT22;4618;48.818;9.088;2022-11-15T14:22:30;14.10;1.00
9167;DHT22;4618;48.818;9.088;2022-11-15T14:27:43;13.90;99.90
9167;DHT22;4618;48.818;9.088;2022-11-15T14:30:17;13.80;99.90
9167;DHT22;4618;48.818;9.088;2022-11-15T14:32:45;13.70;99.90
9167;DHT22;4618;48.818;9.088;2022-11-15T14:35:18;13.70;1.00
9167;DHT22;4618;48.818;9.088;2022-11-15T14:37:44;13.80;99.90
9167;DHT22;4618;48.818;9.088;2022-11-15T14:40:15;13.80;99.90
9167;DHT22;4618;48.818;9.088;2022-11-15T14:42:42;13.80;99.90
9167;DHT22;4618;48.818;9.088;2022-11-15T14:45:21;13.80;99.90
9167;DHT22;4618;48.818;9.088;2022-11-15T14:47:47;13.70;1.00
9167;DHT22;4618;48.818;9.088;2022-11-15T14:50:15;13.50;1.00
9167;DHT22;4618;48.818;9.088;2022-11-15T14:52:41;13.60;1.00
9167;DHT22;4618;48.818;9.088;2022-11-15T14:55:28;13.50;1.00
9167;DHT22;4618;48.818;9.088;2022-11-15T14:57:54;13.50;1.00
9167;DHT22;4618;48.818;9.088;2022-11-15T15:00:20;13.50;1.00
9167;DHT22;4618;48.818;9.088;2022-11-15T15:02:47;13.40;1.00
9167;DHT22;4618;48.818;9.088;2022-11-15T15:05:19;13.40;62.10
9167;DHT22;4618;48.818;9.088;2022-11-15T15:07:45;13.50;99.90
9167;DHT22;4618;48.818;9.088;2022-11-15T15:10:11;13.30;1.00
9167;DHT22;4618;48.818;9.088;2022-11-15T15:12:37;13.30;1.00
9167;DHT22;4618;48.818;9.088;2022-11-15T15:15:03;13.10;99.90
9167;DHT22;4618;48.818;9.088;2022-11-15T15:17:28;12.90;99.90
9167;DHT22;4618;48.818;9.088;2022-11-15T15:19:54;13.00;99.90
9167;DHT22;4618;48.818;9.088;2022-11-15T15:22:20;12.90;1.00
9167;DHT22;4618;48.818;9.088;2022-11-15T15:24:50;12.80;1.00
9167;DHT22;4618;48.818;9.088;2022-11-15T15:27:16;12.70;1.00
9167;DHT22;4618;48.818;9.088;2022-11-15T15:29:42;12.60;1.00
9167;DHT22;4618;48.818;9.088;2022-11-15T15:32:08;12.40;1.00
9167;DHT22;4618;48.818;9.088;2022-11-15T15:34:34;12.30;99.90
9167;DHT22;4618;48.818;9.088;2022-11-15T15:37:25;12.20;70.50
9167;DHT22;4618;48.818;9.088;2022-11-15T15:39:52;12.20;1.00
9167;DHT22;4618;48.818;9.088;2022-11-15T15:42:19;12.20;1.00
9167;DHT22;4618;48.818;9.088;2022-11-15T15:44:45;12.30;99.90
9167;DHT22;4618;48.818;9.088;2022-11-15T15:47:18;12.20;99.90
9167;DHT22;4618;48.818;9.088;2022-11-15T15:49:45;12.30;1.00
9167;DHT22;4618;48.818;9.088;2022-11-15T15:52:10;12.30;1.00
9167;DHT22;4618;48.818;9.088;2022-11-15T15:54:37;12.50;99.90
9167;DHT22;4618;48.818;9.088;2022-11-15T15:57:03;12.50;99.90
9167;DHT22;4618;48.818;9.088;2022-11-15T15:59:28;12.50;99.90
9167;DHT22;4618;48.818;9.088;2022-11-15T16:01:54;12.50;99.90
9167;DHT22;4618;48.818;9.088;2022-11-15T16:04:19;12.60;98.40
9167;DHT22;4618;48.818;9.088;2022-11-15T16:06:45;12.60;99.90
9167;DHT22;4618;48.818;9.088;2022-11-15T16:09:15;12.60;1.00
9167;DHT22;4618;48.818;9.088;2022-11-15T16:11:43;12.60;1.00
9167;DHT22;4618;48.818;9.088;2022-11-15T16:14:08;12.60;14.30
9167;DHT22;4618;48.818;9.088;2022-11-15T16:16:35;12.60;1.00
9167;DHT22;4618;48.818;9.088;2022-11-15T16:19:01;12.60;1.00
9167;DHT22;4618;48.818;9.088;2022-11-15T16:21:27;12.60;1.00
9167;DHT22;4618;48.818;9.088;2022-11-15T16:23:53;12.50;1.00
9167;DHT22;4618;48.818;9.088;2022-11-15T16:26:27;12.50;1.30
9167;DHT22;4618;48.818;9.088;2022-11-15T16:28:53;12.70;1.00
9167;DHT22;4618;48.818;9.088;2022-11-15T16:31:19;12.60;1.00
9167;DHT22;4618;48.818;9.088;2022-11-15T16:33:48;12.60;1.00
9167;DHT22;4618;48.818;9.088;2022-11-15T16:36:21;12.60;1.00
9167;DHT22;4618;48.818;9.088;2022-11-15T16:38:46;12.60;1.00
9167;DHT22;4618;48.818;9.088;2022-11-15T16:41:12;12.50;67.90
9167;DHT22;4618;48.818;9.088;2022-11-15T16:43:38;12.50;99.90
9167;DHT22;4618;48.818;9.088;2022-11-15T16:46:11;12.40;99.90
9167;DHT22;4618;48.818;9.088;2022-11-15T16:48:37;12.30;1.00
9167;DHT22;4618;48.818;9.088;2022-11-15T16:51:04;12.20;1.00
9167;DHT22;4618;48.818;9.088;2022-11-15T16:53:30;12.10;1.00
9167;DHT22;4618;48.818;9.088;2022-11-15T16:55:56;12.00;38.80
9167;DHT22;4618;48.818;9.088;2022-11-15T16:58:22;12.10;54.80
9167;DHT22;4618;48.818;9.088;2022-11-15T17:00:55;12.00;99.90
9167;DHT22;4618;48.818;9.088;2022-11-15T17:03:22;12.00;50.90
9167;DHT22;4618;48.818;9.088;2022-11-15T17:05:48;12.10;1.00
9167;DHT22;4618;48.818;9.088;2022-11-15T17:08:14;12.10;1.00
9167;DHT22;4618;48.818;9.088;2022-11-15T17:10:40;12.10;1.00
9167;DHT22;4618;48.818;9.088;2022-11-15T17:13:07;12.10;1.00
9167;DHT22;4618;48.818;9.088;2022-11-15T17:15:32;12.10;1.00
9167;DHT22;4618;48.818;9.088;2022-11-15T17:17:58;12.10;1.00
9167;DHT22;4618;48.818;9.088;2022-11-15T17:20:25;12.10;1.00
9167;DHT22;4618;48.818;9.088;2022-11-15T17:22:51;12.20;1.00
9167;DHT22;4618;48.818;9.088;2022-11-15T17:25:17;12.30;99.90
9167;DHT22;4618;48.818;9.088;2022-11-15T17:27:43;12.40;99.90
9167;DHT22;4618;48.818;9.088;2022-11-15T17:30:11;12.40;99.90
9167;DHT22;4618;48.818;9.088;2022-11-15T17:32:37;12.40;99.90
9167;DHT22;4618;48.818;9.088;2022-11-15T17:35:04;12.50;1.00
9167;DHT22;4618;48.818;9.088;2022-11-15T17:37:32;12.40;15.30
9167;DHT22;4618;48.818;9.088;2022-11-15T17:39:57;12.20;99.90
9167;DHT22;4618;48.818;9.088;2022-11-15T17:42:23;12.20;99.90
9167;DHT22;4618;48.818;9.088;2022-11-15T17:44:48;12.20;99.90
9167;DHT22;4618;48.818;9.088;2022-11-15T17:47:14;12.20;99.90
9167;DHT22;4618;48.818;9.088;2022-11-15T17:49:39;12.20;99.90
9167;DHT22;4618;48.818;9.088;2022-11-15T17:52:06;12.20;99.90
9167;DHT22;4618;48.818;9.088;2022-11-15T17:54:32;12.10;99.90
9167;DHT22;4618;48.818;9.088;2022-11-15T17:56:57;12.10;1.00
9167;DHT22;4618;48.818;9.088;2022-11-15T17:59:23;12.10;1.00
9167;DHT22;4618;48.818;9.088;2022-11-15T18:01:49;12.20;1.00
9167;DHT22;4618;48.818;9.088;2022-11-15T18:04:14;12.10;1.00
9167;DHT22;4618;48.818;9.088;2022-11-15T18:06:40;12.10;1.00
9167;DHT22;4618;48.818;9.088;2022-11-15T18:09:06;12.00;1.00
9167;DHT22;4618;48.818;9.088;2022-11-15T18:11:40;12.10;1.00
9167;DHT22;4618;48.818;9.088;2022-11-15T18:14:09;12.10;1.00
9167;DHT22;4618;48.818;9.088;2022-11-15T18:16:36;12.10;1.00
9167;DHT22;4618;48.818;9.088;2022-11-15T18:19:03;12.10;1.00
9167;DHT22;4618;48.818;9.088;2022-11-15T18:21:33;12.10;1.00
9167;DHT22;4618;48.818;9.088;2022-11-15T18:24:00;12.20;99.90
9167;DHT22;4618;48.818;9.088;2022-11-15T18:26:28;12.20;1.00
9167;DHT22;4618;48.818;9.088;2022-11-15T18:28:56;12.20;99.90
9167;DHT22;4618;48.818;9.088;2022-11-15T18:31:24;12.20;1.00
9167;DHT22;4618;48.818;9.088;2022-11-15T18:33:50;12.20;1.00
9167;DHT22;4618;48.818;9.088;2022-11-15T18:36:25;12.20;1.00
9167;DHT22;4618;48.818;9.088;2022-11-15T18:38:54;12.10;1.00
9167;DHT22;4618;48.818;9.088;2022-11-15T18:41:21;12.10;1.00
9167;DHT22;4618;48.818;9.088;2022-11-15T18:43:50;12.10;1.00
9167;DHT22;4618;48.818;9.088;2022-11-15T18:46:18;12.20;1.00
9167;DHT22;4618;48.818;9.088;2022-11-15T18:48:45;12.10;1.00